createdAt,value
2022-12-03T00:00:55.457Z,0.97
2022-12-03T00:01:55.465Z,0.97
2022-12-03T00:02:55.542Z,0.96
2022-12-03T00:03:55.587Z,0.94
2022-12-03T00:04:55.686Z,0.97
2022-12-03T00:05:55.418Z,0.97
2022-12-03T00:06:55.415Z,0.98
2022-12-03T00:07:55.513Z,0.98
2022-12-03T00:08:55.371Z,0.96
2022-12-03T00:09:55.389Z,0.94
2022-12-03T00:10:55.374Z,0.94
2022-12-03T00:11:55.363Z,0.90
2022-12-03T00:12:55.362Z,0.90
2022-12-03T00:13:55.347Z,0.90
2022-12-03T00:14:55.690Z,0.90
2022-12-03T00:15:56.148Z,0.92
2022-12-03T00:16:55.307Z,0.92
2022-12-03T00:17:55.286Z,0.90
2022-12-03T00:18:55.284Z,0.94
2022-12-03T00:19:55.287Z,0.92
2022-12-03T00:20:55.242Z,0.92
2022-12-03T00:21:55.264Z,0.89
2022-12-03T00:22:55.231Z,0.90
2022-12-03T00:23:55.232Z,0.89
2022-12-03T00:24:55.525Z,0.90
2022-12-03T00:25:55.208Z,0.92
2022-12-03T00:26:55.205Z,0.89
2022-12-03T00:27:55.193Z,0.89
2022-12-03T00:28:55.163Z,0.90
2022-12-03T00:29:55.168Z,0.96
2022-12-03T00:30:55.195Z,0.94
2022-12-03T00:31:55.171Z,0.88
2022-12-03T00:32:55.145Z,0.86
2022-12-03T00:33:55.141Z,0.83
2022-12-03T00:34:55.339Z,0.85
2022-12-03T00:35:55.127Z,0.86
2022-12-03T00:36:55.088Z,0.85
2022-12-03T00:37:55.117Z,0.86
2022-12-03T00:38:55.089Z,0.83
2022-12-03T00:39:55.085Z,0.83
2022-12-03T00:40:55.057Z,0.82
2022-12-03T00:41:55.064Z,0.79
2022-12-03T00:42:55.032Z,0.80
2022-12-03T00:43:55.046Z,0.79
2022-12-03T00:44:55.462Z,0.79
2022-12-03T00:45:56.006Z,0.78
2022-12-03T00:46:55.138Z,0.80
2022-12-03T00:47:54.990Z,0.85
2022-12-03T00:48:54.979Z,0.82
2022-12-03T00:49:54.992Z,0.79
2022-12-03T00:50:54.959Z,0.82
2022-12-03T00:51:54.952Z,0.82
2022-12-03T00:52:54.943Z,0.85
2022-12-03T00:53:54.961Z,0.85
2022-12-03T00:54:55.248Z,0.85
2022-12-03T00:55:54.935Z,0.85
2022-12-03T00:56:54.899Z,0.82
2022-12-03T00:57:54.897Z,0.80
2022-12-03T00:58:54.901Z,0.82
2022-12-03T00:59:54.978Z,0.82
2022-12-03T01:00:54.852Z,0.85
2022-12-03T01:01:55.036Z,0.85
2022-12-03T01:02:54.832Z,0.86
2022-12-03T01:03:54.840Z,0.89
2022-12-03T01:04:54.982Z,0.94
2022-12-03T01:05:54.823Z,0.96
2022-12-03T01:06:54.787Z,0.94
2022-12-03T01:07:54.862Z,0.92
2022-12-03T01:08:54.781Z,0.90
2022-12-03T01:09:54.779Z,0.92
2022-12-03T01:10:54.773Z,0.88
2022-12-03T01:11:54.752Z,0.89
2022-12-03T01:12:54.723Z,0.90
2022-12-03T01:13:54.738Z,0.88
2022-12-03T01:14:55.063Z,0.85
2022-12-03T01:15:54.774Z,0.83
2022-12-03T01:16:54.685Z,0.88
2022-12-03T01:17:54.682Z,0.85
2022-12-03T01:18:54.670Z,0.85
2022-12-03T01:19:54.699Z,0.80
2022-12-03T01:20:54.637Z,0.78
2022-12-03T01:21:54.646Z,0.76
2022-12-03T01:22:54.634Z,0.76
2022-12-03T01:23:54.622Z,0.76
2022-12-03T01:24:54.861Z,0.76
2022-12-03T01:25:54.625Z,0.75
2022-12-03T01:26:54.586Z,0.72
2022-12-03T01:27:54.590Z,0.68
2022-12-03T01:28:54.570Z,0.67
2022-12-03T01:29:54.576Z,0.70
2022-12-03T01:30:54.625Z,0.70
2022-12-03T01:31:54.539Z,0.70
2022-12-03T01:32:54.529Z,0.71
2022-12-03T01:33:54.518Z,0.70
2022-12-03T01:34:54.895Z,0.68
2022-12-03T01:35:54.512Z,0.68
2022-12-03T01:36:54.491Z,0.68
2022-12-03T01:37:54.476Z,0.70
2022-12-03T01:38:54.462Z,0.68
2022-12-03T01:39:54.467Z,0.70
2022-12-03T01:40:54.440Z,0.68
2022-12-03T01:41:54.446Z,0.67
2022-12-03T01:42:54.469Z,0.68
2022-12-03T01:43:54.424Z,0.68
2022-12-03T01:44:54.832Z,0.70
2022-12-03T01:45:54.413Z,0.70
2022-12-03T01:46:54.494Z,0.68
2022-12-03T01:47:54.383Z,0.68
2022-12-03T01:48:54.377Z,0.70
2022-12-03T01:49:54.391Z,0.71
2022-12-03T01:50:54.345Z,0.75
2022-12-03T01:51:54.365Z,0.75
2022-12-03T01:52:54.333Z,0.75
2022-12-03T01:53:54.318Z,0.72
2022-12-03T01:54:54.628Z,0.75
2022-12-03T01:55:54.297Z,0.72
2022-12-03T01:56:54.282Z,0.71
2022-12-03T01:57:54.288Z,0.71
2022-12-03T01:58:54.290Z,0.70
2022-12-03T01:59:54.252Z,0.68
2022-12-03T02:00:54.295Z,0.65
2022-12-03T02:01:54.282Z,0.62
2022-12-03T02:02:54.242Z,0.61
2022-12-03T02:03:54.283Z,0.62
2022-12-03T02:04:54.627Z,0.62
2022-12-03T02:05:54.190Z,0.61
2022-12-03T02:06:54.205Z,0.62
2022-12-03T02:07:54.289Z,0.64
2022-12-03T02:08:54.192Z,0.62
2022-12-03T02:09:54.288Z,0.62
2022-12-03T02:10:54.144Z,0.64
2022-12-03T02:11:54.167Z,0.62
2022-12-03T02:12:54.162Z,0.62
2022-12-03T02:13:54.116Z,0.62
2022-12-03T02:14:54.416Z,0.67
2022-12-03T02:15:54.155Z,0.65
2022-12-03T02:16:54.088Z,0.65
2022-12-03T02:17:54.073Z,0.67
2022-12-03T02:18:54.076Z,0.67
2022-12-03T02:19:54.071Z,0.67
2022-12-03T02:20:54.034Z,0.65
2022-12-03T02:21:54.045Z,0.67
2022-12-03T02:22:54.012Z,0.70
2022-12-03T02:23:54.047Z,0.68
2022-12-03T02:24:54.245Z,0.71
2022-12-03T02:25:54.004Z,0.71
2022-12-03T02:26:53.981Z,0.70
2022-12-03T02:27:53.997Z,0.72
2022-12-03T02:28:53.956Z,0.75
2022-12-03T02:29:53.967Z,0.76
2022-12-03T02:30:53.936Z,0.76
2022-12-03T02:31:53.993Z,0.76
2022-12-03T02:32:53.929Z,0.75
2022-12-03T02:33:53.915Z,0.72
2022-12-03T02:34:54.172Z,0.72
2022-12-03T02:35:55.289Z,0.76
2022-12-03T02:36:53.882Z,0.76
2022-12-03T02:37:53.871Z,0.76
2022-12-03T02:38:53.860Z,0.76
2022-12-03T02:39:53.864Z,0.76
2022-12-03T02:40:53.838Z,0.75
2022-12-03T02:41:53.830Z,0.75
2022-12-03T02:42:53.847Z,0.75
2022-12-03T02:43:53.823Z,0.75
2022-12-03T02:44:54.015Z,0.78
2022-12-03T02:45:53.806Z,0.78
2022-12-03T02:46:53.805Z,0.79
2022-12-03T02:47:53.774Z,0.76
2022-12-03T02:48:53.939Z,0.76
2022-12-03T02:49:53.762Z,0.75
2022-12-03T02:50:53.767Z,0.72
2022-12-03T02:51:53.736Z,0.71
2022-12-03T02:52:53.718Z,0.71
2022-12-03T02:53:53.715Z,0.71
2022-12-03T02:54:53.919Z,0.71
2022-12-03T02:55:53.701Z,0.68
2022-12-03T02:56:53.695Z,0.67
2022-12-03T02:57:53.669Z,0.68
2022-12-03T02:58:53.683Z,0.68
2022-12-03T02:59:53.669Z,0.72
2022-12-03T03:00:53.685Z,0.68
2022-12-03T03:01:53.700Z,0.68
2022-12-03T03:02:53.623Z,0.67
2022-12-03T03:03:53.620Z,0.67
2022-12-03T03:04:53.917Z,0.64
2022-12-03T03:05:53.605Z,0.64
2022-12-03T03:06:53.576Z,0.62
2022-12-03T03:07:53.640Z,0.61
2022-12-03T03:08:53.565Z,0.62
2022-12-03T03:09:53.556Z,0.65
2022-12-03T03:10:53.597Z,0.65
2022-12-03T03:11:53.553Z,0.64
2022-12-03T03:12:53.516Z,0.61
2022-12-03T03:13:53.527Z,0.61
2022-12-03T03:14:53.912Z,0.60
2022-12-03T03:15:53.585Z,0.58
2022-12-03T03:16:53.570Z,0.61
2022-12-03T03:17:53.468Z,0.62
2022-12-03T03:18:53.459Z,0.62
2022-12-03T03:19:53.492Z,0.65
2022-12-03T03:20:53.426Z,0.67
2022-12-03T03:21:53.455Z,0.70
2022-12-03T03:22:53.437Z,0.76
2022-12-03T03:23:53.405Z,0.80
2022-12-03T03:24:53.703Z,0.80
2022-12-03T03:25:53.401Z,0.79
2022-12-03T03:26:53.387Z,0.79
2022-12-03T03:27:53.388Z,0.79
2022-12-03T03:28:53.366Z,0.80
2022-12-03T03:29:53.351Z,0.79
2022-12-03T03:30:53.343Z,0.78
2022-12-03T03:31:53.392Z,0.76
2022-12-03T03:32:53.323Z,0.72
2022-12-03T03:33:53.302Z,0.75
2022-12-03T03:34:53.674Z,0.76
2022-12-03T03:35:53.300Z,0.76
2022-12-03T03:36:53.291Z,0.78
2022-12-03T03:37:53.292Z,0.79
2022-12-03T03:38:53.270Z,0.80
2022-12-03T03:39:53.251Z,0.80
2022-12-03T03:40:53.282Z,0.82
2022-12-03T03:41:53.235Z,0.86
2022-12-03T03:42:53.240Z,0.86
2022-12-03T03:43:53.223Z,0.82
2022-12-03T03:44:53.512Z,0.79
2022-12-03T03:45:53.226Z,0.79
2022-12-03T03:46:53.216Z,0.76
2022-12-03T03:47:53.204Z,0.78
2022-12-03T03:48:53.152Z,0.72
2022-12-03T03:49:53.168Z,0.75
2022-12-03T03:50:53.146Z,0.71
2022-12-03T03:51:53.148Z,0.76
2022-12-03T03:52:53.128Z,0.78
2022-12-03T03:53:53.107Z,0.80
2022-12-03T03:54:53.319Z,0.83
2022-12-03T03:55:53.098Z,0.88
2022-12-03T03:56:53.087Z,0.86
2022-12-03T03:57:53.080Z,0.85
2022-12-03T03:58:53.084Z,0.82
2022-12-03T03:59:53.059Z,0.82
2022-12-03T04:00:53.058Z,0.83
2022-12-03T04:01:53.035Z,0.85
2022-12-03T04:02:53.015Z,0.88
2022-12-03T04:03:53.092Z,0.86
2022-12-03T04:04:53.374Z,0.83
2022-12-03T04:05:52.987Z,0.88
2022-12-03T04:06:52.987Z,0.86
2022-12-03T04:07:53.055Z,0.86
2022-12-03T04:08:52.959Z,0.83
2022-12-03T04:09:52.972Z,0.82
2022-12-03T04:10:52.939Z,0.82
2022-12-03T04:11:52.917Z,0.82
2022-12-03T04:12:52.924Z,0.80
2022-12-03T04:13:52.913Z,0.78
2022-12-03T04:14:53.187Z,0.70
2022-12-03T04:15:52.888Z,0.65
2022-12-03T04:16:52.955Z,0.60
2022-12-03T04:17:52.871Z,0.58
2022-12-03T04:18:52.854Z,0.57
2022-12-03T04:19:52.858Z,0.53
2022-12-03T04:20:52.861Z,0.53
2022-12-03T04:21:52.835Z,0.57
2022-12-03T04:22:52.852Z,0.52
2022-12-03T04:23:52.797Z,0.52
2022-12-03T04:24:53.185Z,0.52
2022-12-03T04:25:52.813Z,0.58
2022-12-03T04:26:52.794Z,0.60
2022-12-03T04:27:52.769Z,0.61
2022-12-03T04:28:52.766Z,0.60
2022-12-03T04:29:52.732Z,0.53
2022-12-03T04:30:52.806Z,0.53
2022-12-03T04:31:52.756Z,0.49
2022-12-03T04:32:52.712Z,0.51
2022-12-03T04:33:52.698Z,0.51
2022-12-03T04:34:53.025Z,0.49
2022-12-03T04:35:52.740Z,0.49
2022-12-03T04:36:52.774Z,0.48
2022-12-03T04:37:52.677Z,0.45
2022-12-03T07:35:21.367Z,0.15
2022-12-03T07:36:22.337Z,0.16
2022-12-03T07:37:23.434Z,0.16
2022-12-03T07:38:22.310Z,0.18
2022-12-03T07:39:22.278Z,0.16
2022-12-03T07:40:22.292Z,0.16
2022-12-03T07:41:22.257Z,0.15
2022-12-03T07:42:22.265Z,0.15
2022-12-03T07:43:22.228Z,0.13
2022-12-03T07:44:22.234Z,0.13
2022-12-03T07:45:22.277Z,0.12
2022-12-03T07:46:22.300Z,0.12
2022-12-03T07:47:22.194Z,0.15
2022-12-03T07:48:22.188Z,0.20
2022-12-03T07:49:22.198Z,0.20
2022-12-03T07:50:22.164Z,0.15
2022-12-03T07:51:24.189Z,0.15
2022-12-03T07:52:22.126Z,0.12
2022-12-03T07:53:22.128Z,0.10
2022-12-03T07:54:22.143Z,0.10
2022-12-03T07:55:22.126Z,0.10
2022-12-03T07:56:22.114Z,0.15
2022-12-03T07:57:22.114Z,0.18
2022-12-03T07:58:22.135Z,0.21
2022-12-03T07:59:25.426Z,0.25
2022-12-03T08:00:22.067Z,0.27
2022-12-03T08:01:22.133Z,0.27
2022-12-03T08:02:22.233Z,0.30
2022-12-03T08:03:22.022Z,0.30
2022-12-03T08:04:22.001Z,0.33
2022-12-03T08:05:22.038Z,0.33
2022-12-03T08:06:21.998Z,0.38
2022-12-03T08:07:21.980Z,0.42
2022-12-03T08:08:21.982Z,0.42
2022-12-03T08:09:21.959Z,0.42
2022-12-03T08:10:21.944Z,0.41
2022-12-03T08:11:21.990Z,0.38
2022-12-03T08:12:21.944Z,0.36
2022-12-03T08:13:21.936Z,0.33
2022-12-03T08:14:21.919Z,0.24
2022-12-03T08:15:21.962Z,0.23
2022-12-03T08:16:21.981Z,0.24
2022-12-03T08:17:21.927Z,0.31
2022-12-03T08:18:21.871Z,0.33
2022-12-03T08:19:21.883Z,0.34
2022-12-03T08:20:21.863Z,0.34
2022-12-03T08:21:21.843Z,0.36
2022-12-03T08:22:21.839Z,0.33
2022-12-03T08:23:21.826Z,0.30
2022-12-03T08:24:21.807Z,0.24
2022-12-03T08:25:21.813Z,0.21
2022-12-03T08:26:21.799Z,0.15
2022-12-03T08:27:21.804Z,0.16
2022-12-03T08:28:21.762Z,0.15
2022-12-03T08:29:21.772Z,0.12
2022-12-03T08:30:21.748Z,0.10
2022-12-03T08:31:21.760Z,0.07
2022-12-03T08:32:21.816Z,0.05
2022-12-03T08:33:21.724Z,0.05
2022-12-03T08:34:21.727Z,0.02
2022-12-03T08:35:21.715Z,-0.01
2022-12-03T08:36:21.688Z,-0.04
2022-12-03T08:37:21.699Z,0.00
2022-12-03T08:38:21.693Z,0.03
2022-12-03T08:39:21.664Z,0.02
2022-12-03T08:40:21.635Z,-0.04
2022-12-03T08:41:21.681Z,0.00
2022-12-03T08:42:21.639Z,-0.05
2022-12-03T08:43:21.628Z,-0.06
2022-12-03T08:44:21.681Z,-0.05
2022-12-03T08:45:21.618Z,-0.05
2022-12-03T08:46:21.779Z,-0.06
2022-12-03T08:47:21.593Z,-0.08
2022-12-03T08:48:21.576Z,-0.09
2022-12-03T08:49:21.584Z,-0.09
2022-12-03T08:50:21.563Z,-0.11
2022-12-03T08:51:21.602Z,-0.08
2022-12-03T08:52:21.522Z,-0.11
2022-12-03T08:53:21.534Z,-0.08
2022-12-03T08:54:21.524Z,-0.08
2022-12-03T08:55:21.514Z,-0.08
2022-12-03T08:56:21.473Z,-0.06
2022-12-03T08:57:21.583Z,0.00
2022-12-03T08:58:21.467Z,0.12
2022-12-03T08:59:21.474Z,0.31
2022-12-03T09:00:21.462Z,0.49
2022-12-03T09:01:21.557Z,0.52
2022-12-03T09:02:21.430Z,0.48
2022-12-03T09:03:21.416Z,0.48
2022-12-03T09:04:21.493Z,0.42
2022-12-03T09:05:21.399Z,0.28
2022-12-03T09:06:21.396Z,0.21
2022-12-03T09:07:21.606Z,0.13
2022-12-03T09:08:21.475Z,0.10
2022-12-03T09:09:21.381Z,0.07
2022-12-03T09:10:21.386Z,0.07
2022-12-03T09:11:21.348Z,0.10
2022-12-03T09:12:21.311Z,0.10
2022-12-03T09:13:21.324Z,0.12
2022-12-03T09:14:21.324Z,0.15
2022-12-03T09:15:21.311Z,0.12
2022-12-03T09:16:21.380Z,0.10
2022-12-03T09:17:21.291Z,0.15
2022-12-03T09:18:21.285Z,0.20
2022-12-03T09:19:21.321Z,0.16
2022-12-03T09:20:21.240Z,0.13
2022-12-03T09:21:21.283Z,0.10
2022-12-03T09:22:21.220Z,0.07
2022-12-03T09:23:21.221Z,0.09
2022-12-03T09:24:21.219Z,0.12
2022-12-03T09:25:21.229Z,0.15
2022-12-03T09:26:21.182Z,0.16
2022-12-03T09:27:21.190Z,0.18
2022-12-03T09:28:21.163Z,0.20
2022-12-03T09:29:21.181Z,0.23
2022-12-03T09:30:21.133Z,0.21
2022-12-03T09:31:21.163Z,0.18
2022-12-03T09:32:21.244Z,0.23
2022-12-03T09:33:21.139Z,0.23
2022-12-03T09:34:21.121Z,0.21
2022-12-03T09:35:21.113Z,0.23
2022-12-03T09:36:21.100Z,0.23
2022-12-03T09:37:21.065Z,0.21
2022-12-03T09:38:21.066Z,0.20
2022-12-03T09:39:21.062Z,0.18
2022-12-03T09:40:21.050Z,0.18
2022-12-03T09:41:21.043Z,0.20
2022-12-03T09:42:21.024Z,0.24
2022-12-03T09:43:21.011Z,0.28
2022-12-03T09:44:20.985Z,0.28
2022-12-03T09:45:20.994Z,0.24
2022-12-03T09:46:21.133Z,0.28
2022-12-03T09:47:20.981Z,0.28
2022-12-03T09:48:20.971Z,0.30
2022-12-03T09:49:20.952Z,0.23
2022-12-03T09:50:20.940Z,0.23
2022-12-03T09:51:20.946Z,0.20
2022-12-03T09:52:20.924Z,0.20
2022-12-03T09:53:20.907Z,0.25
2022-12-03T09:54:20.923Z,0.31
2022-12-03T09:55:20.898Z,0.33
2022-12-03T09:56:20.871Z,0.30
2022-12-03T09:57:20.930Z,0.27
2022-12-03T09:58:20.858Z,0.21
2022-12-03T09:59:20.855Z,0.15
2022-12-03T10:00:20.903Z,0.13
2022-12-03T10:01:20.939Z,0.13
2022-12-03T10:02:20.821Z,0.13
2022-12-03T10:03:24.085Z,0.16
2022-12-03T10:04:20.895Z,0.16
2022-12-03T10:05:20.803Z,0.18
2022-12-03T10:06:20.784Z,0.20
2022-12-03T10:07:20.792Z,0.18
2022-12-03T10:08:20.871Z,0.18
2022-12-03T10:09:20.792Z,0.21
2022-12-03T10:10:20.748Z,0.24
2022-12-03T10:11:20.742Z,0.25
2022-12-03T10:12:20.813Z,0.31
2022-12-03T10:13:25.464Z,0.33
2022-12-03T10:14:20.741Z,0.31
2022-12-03T10:15:20.705Z,0.28
2022-12-03T10:16:20.741Z,0.27
2022-12-03T10:17:20.686Z,0.30
2022-12-03T10:18:20.677Z,0.27
2022-12-03T10:19:20.655Z,0.30
2022-12-03T10:20:20.623Z,0.33
2022-12-03T10:21:20.645Z,0.30
2022-12-03T10:22:20.624Z,0.31
2022-12-03T10:23:20.623Z,0.33
2022-12-03T10:24:20.599Z,0.41
2022-12-03T10:25:20.585Z,0.41
2022-12-03T10:26:20.596Z,0.36
2022-12-03T10:27:20.562Z,0.33
2022-12-03T10:28:20.584Z,0.30
2022-12-03T10:29:20.559Z,0.27
2022-12-03T10:30:20.549Z,0.30
2022-12-03T10:31:20.650Z,0.31
2022-12-03T10:32:20.539Z,0.31
2022-12-03T10:33:20.502Z,0.28
2022-12-03T10:34:20.513Z,0.27
2022-12-03T10:35:20.489Z,0.25
2022-12-03T10:36:20.482Z,0.27
2022-12-03T10:37:20.458Z,0.30
2022-12-03T10:38:20.471Z,0.30
2022-12-03T10:39:20.460Z,0.31
2022-12-03T10:40:20.486Z,0.33
2022-12-03T10:41:20.428Z,0.33
2022-12-03T10:42:20.449Z,0.30
2022-12-03T10:43:20.400Z,0.33
2022-12-03T10:44:20.415Z,0.36
2022-12-03T10:45:20.396Z,0.39
2022-12-03T10:46:20.541Z,0.41
2022-12-03T10:47:20.467Z,0.41
2022-12-03T10:48:20.356Z,0.41
2022-12-03T10:49:20.334Z,0.39
2022-12-03T10:50:20.364Z,0.34
2022-12-03T10:51:20.324Z,0.27
2022-12-03T10:52:25.476Z,0.24
2022-12-03T10:53:20.310Z,0.24
2022-12-03T10:54:20.293Z,0.24
2022-12-03T10:55:20.316Z,0.24
2022-12-03T10:56:20.330Z,0.21
2022-12-03T10:57:20.259Z,0.13
2022-12-03T10:58:20.253Z,0.03
2022-12-03T10:59:20.286Z,-0.01
2022-12-03T11:00:20.263Z,-0.01
2022-12-03T11:01:20.329Z,-0.01
2022-12-03T11:02:20.238Z,-0.04
2022-12-03T11:03:20.258Z,-0.01
2022-12-03T11:04:20.204Z,0.02
2022-12-03T11:05:20.211Z,0.05
2022-12-03T11:06:20.175Z,0.05
2022-12-03T11:07:20.159Z,0.06
2022-12-03T11:08:20.231Z,0.05
2022-12-03T11:09:20.147Z,0.05
2022-12-03T11:10:20.154Z,0.06
2022-12-03T11:11:20.163Z,0.12
2022-12-03T11:12:20.143Z,0.13
2022-12-03T11:13:20.117Z,0.15
2022-12-03T11:14:23.046Z,0.16
2022-12-03T11:15:20.106Z,0.13
2022-12-03T11:16:20.150Z,0.12
2022-12-03T11:17:20.103Z,0.09
2022-12-03T11:18:20.062Z,0.06
2022-12-03T11:19:20.203Z,0.05
2022-12-03T11:20:22.939Z,0.06
2022-12-03T11:21:20.024Z,0.06
2022-12-03T11:22:20.013Z,0.05
2022-12-03T11:23:20.049Z,0.06
2022-12-03T11:24:20.055Z,0.06
2022-12-03T11:25:19.984Z,0.06
2022-12-03T11:26:20.137Z,0.06
2022-12-03T11:27:19.964Z,0.06
2022-12-03T11:28:19.965Z,0.10
2022-12-03T11:29:19.944Z,0.12
2022-12-03T11:30:19.949Z,0.10
2022-12-03T11:31:19.994Z,0.13
2022-12-03T11:32:19.917Z,0.15
2022-12-03T11:33:19.910Z,0.16
2022-12-03T11:34:19.922Z,0.09
2022-12-03T11:35:19.880Z,0.06
2022-12-03T11:36:36.331Z,0.05
2022-12-03T11:37:19.853Z,0.02
2022-12-03T11:38:19.849Z,-0.04
2022-12-03T11:39:19.868Z,-0.05
2022-12-03T11:40:19.863Z,-0.06
2022-12-03T11:41:19.834Z,-0.06
2022-12-03T11:42:19.814Z,-0.04
2022-12-03T11:43:19.801Z,-0.01
2022-12-03T11:44:19.794Z,-0.04
2022-12-03T11:45:19.817Z,-0.01
2022-12-03T11:46:19.892Z,-0.04
2022-12-03T11:47:19.770Z,-0.01
2022-12-03T11:48:19.765Z,-0.01
2022-12-03T11:49:19.750Z,0.03
2022-12-03T11:50:19.729Z,0.09
2022-12-03T11:51:19.758Z,0.06
2022-12-03T11:52:19.749Z,0.03
2022-12-03T11:53:19.732Z,0.00
2022-12-03T11:54:19.709Z,-0.08
2022-12-03T11:55:19.686Z,-0.11
2022-12-03T11:56:19.676Z,-0.15
2022-12-03T11:57:19.664Z,-0.16
2022-12-03T11:58:19.674Z,-0.15
2022-12-03T11:59:19.646Z,-0.15
2022-12-03T12:00:19.668Z,-0.11
2022-12-03T12:01:19.619Z,-0.13
2022-12-03T12:02:19.611Z,-0.12
2022-12-03T12:03:19.726Z,-0.13
2022-12-03T12:04:19.696Z,-0.12
2022-12-03T12:05:19.586Z,-0.11
2022-12-03T12:06:19.613Z,-0.11
2022-12-03T12:07:19.573Z,-0.08
2022-12-03T12:08:19.689Z,-0.08
2022-12-03T12:09:19.528Z,-0.12
2022-12-03T12:10:19.530Z,-0.15
2022-12-03T12:11:19.549Z,-0.22
2022-12-03T12:12:19.519Z,-0.23
2022-12-03T12:13:19.523Z,-0.23
2022-12-03T12:14:19.498Z,-0.23
2022-12-03T12:15:19.480Z,-0.23
2022-12-03T12:16:19.526Z,-0.24
2022-12-03T12:17:19.470Z,-0.23
2022-12-03T12:18:19.484Z,-0.24
2022-12-03T12:19:19.451Z,-0.22
2022-12-03T12:20:19.433Z,-0.23
2022-12-03T12:21:19.463Z,-0.24
2022-12-03T12:22:19.449Z,-0.24
2022-12-03T12:23:19.398Z,-0.27
2022-12-03T12:24:19.415Z,-0.27
2022-12-03T12:25:19.375Z,-0.24
2022-12-03T12:26:19.367Z,-0.26
2022-12-03T12:27:19.375Z,-0.29
2022-12-03T12:28:19.362Z,-0.31
2022-12-03T12:29:19.345Z,-0.33
2022-12-03T12:30:19.348Z,-0.30
2022-12-03T12:31:19.355Z,-0.30
2022-12-03T12:32:19.315Z,-0.29
2022-12-03T12:33:19.299Z,-0.26
2022-12-03T12:34:19.289Z,-0.24
2022-12-03T12:35:19.312Z,-0.23
2022-12-03T12:36:19.276Z,-0.22
2022-12-03T12:37:19.265Z,-0.16
2022-12-03T12:38:19.247Z,-0.15
2022-12-03T12:39:19.241Z,-0.15
2022-12-03T12:40:19.251Z,-0.13
2022-12-03T12:41:19.249Z,-0.13
2022-12-03T12:42:19.225Z,-0.13
2022-12-03T12:43:23.774Z,-0.09
2022-12-03T12:44:19.201Z,-0.09
2022-12-03T12:45:19.182Z,-0.11
2022-12-03T12:46:46.615Z,-0.05
2022-12-03T12:47:19.298Z,-0.04
2022-12-03T12:48:19.153Z,0.02
2022-12-03T12:49:19.127Z,0.00
2022-12-03T12:50:19.138Z,0.02
2022-12-03T12:51:19.112Z,0.02
2022-12-03T12:52:19.180Z,0.02
2022-12-03T12:53:19.092Z,0.03
2022-12-03T12:54:19.103Z,0.05
2022-12-03T12:55:19.074Z,0.07
2022-12-03T12:56:19.073Z,0.10
2022-12-03T12:57:19.075Z,0.10
2022-12-03T12:58:19.054Z,0.15
2022-12-03T12:59:19.041Z,0.09
2022-12-03T13:00:19.045Z,0.03
2022-12-03T13:01:19.068Z,-0.01
2022-12-03T13:02:19.091Z,-0.11
2022-12-03T13:03:19.003Z,-0.12
2022-12-03T13:04:19.017Z,-0.06
2022-12-03T13:05:18.988Z,-0.05
2022-12-03T13:06:18.979Z,-0.06
2022-12-03T13:07:18.951Z,-0.08
2022-12-03T13:08:19.043Z,-0.08
2022-12-03T13:09:18.951Z,-0.12
2022-12-03T13:10:18.918Z,-0.16
2022-12-03T13:11:18.970Z,-0.15
2022-12-03T13:12:18.911Z,-0.12
2022-12-03T13:13:19.558Z,-0.11
2022-12-03T13:14:18.901Z,-0.08
2022-12-03T13:15:18.872Z,-0.09
2022-12-03T13:16:18.964Z,-0.09
2022-12-03T13:17:18.847Z,-0.08
2022-12-03T13:18:18.862Z,-0.06
2022-12-03T13:19:18.829Z,-0.05
2022-12-03T13:20:18.843Z,-0.05
2022-12-03T13:21:18.806Z,-0.01
2022-12-03T13:22:18.817Z,0.02
2022-12-03T13:23:18.796Z,0.02
2022-12-03T13:24:18.815Z,0.03
2022-12-03T13:25:38.003Z,0.03
2022-12-03T13:26:32.852Z,0.05
2022-12-03T13:27:18.771Z,0.03
2022-12-03T13:28:18.758Z,-0.01
2022-12-03T13:29:18.768Z,-0.06
2022-12-03T13:30:18.787Z,-0.08
2022-12-03T13:31:18.737Z,-0.05
2022-12-03T13:32:18.714Z,-0.01
2022-12-03T13:33:18.738Z,0.03
2022-12-03T13:34:18.719Z,-0.01
2022-12-03T13:35:18.665Z,-0.01
2022-12-03T13:36:18.679Z,-0.04
2022-12-03T13:37:18.673Z,0.00
2022-12-03T13:38:18.680Z,0.05
2022-12-03T13:39:18.652Z,0.02
2022-12-03T13:40:18.642Z,0.03
2022-12-03T13:41:18.627Z,0.02
2022-12-03T13:42:18.616Z,-0.01
2022-12-03T13:43:18.610Z,-0.08
2022-12-03T13:44:18.614Z,-0.09
2022-12-03T13:45:18.563Z,-0.09
2022-12-03T13:46:18.663Z,-0.08
2022-12-03T13:47:18.577Z,-0.08
2022-12-03T13:48:18.576Z,-0.09
2022-12-03T13:49:18.562Z,-0.11
2022-12-03T13:50:18.549Z,-0.11
2022-12-03T13:51:18.535Z,-0.13
2022-12-03T13:52:18.537Z,-0.13
2022-12-03T13:53:18.500Z,-0.16
2022-12-03T13:54:18.523Z,-0.16
2022-12-03T13:55:18.545Z,-0.18
2022-12-03T13:56:18.487Z,-0.18
2022-12-03T13:57:18.457Z,-0.19
2022-12-03T13:58:18.445Z,-0.19
2022-12-03T13:59:22.915Z,-0.22
2022-12-03T14:00:18.476Z,-0.23
2022-12-03T14:01:18.465Z,-0.26
2022-12-03T14:02:18.492Z,-0.29
2022-12-03T14:03:18.437Z,-0.31
2022-12-03T14:04:18.394Z,-0.30
2022-12-03T14:05:18.402Z,-0.29
2022-12-03T14:06:18.370Z,-0.31
2022-12-03T14:07:18.361Z,-0.31
2022-12-03T14:08:18.390Z,-0.33
2022-12-03T14:09:18.329Z,-0.33
2022-12-03T14:10:18.344Z,-0.34
2022-12-03T14:11:18.311Z,-0.36
2022-12-03T14:12:18.313Z,-0.34
2022-12-03T14:13:18.295Z,-0.31
2022-12-03T14:14:18.328Z,-0.30
2022-12-03T14:15:18.278Z,-0.29
2022-12-03T14:16:18.310Z,-0.27
2022-12-03T14:17:18.275Z,-0.29
2022-12-03T14:18:18.258Z,-0.31
2022-12-03T14:19:18.251Z,-0.33
2022-12-03T14:20:18.219Z,-0.34
2022-12-03T14:21:18.206Z,-0.36
2022-12-03T14:22:18.200Z,-0.36
2022-12-03T14:23:18.203Z,-0.37
2022-12-03T14:24:18.207Z,-0.37
2022-12-03T14:25:18.159Z,-0.34
2022-12-03T14:26:18.176Z,-0.34
2022-12-03T14:27:18.179Z,-0.34
2022-12-03T14:28:18.139Z,-0.36
2022-12-03T14:29:18.137Z,-0.36
2022-12-03T14:30:18.129Z,-0.37
2022-12-03T14:31:18.149Z,-0.41
2022-12-03T14:32:18.217Z,-0.39
2022-12-03T14:33:18.087Z,-0.42
2022-12-03T14:34:18.133Z,-0.42
2022-12-03T14:35:18.061Z,-0.44
2022-12-03T14:36:18.072Z,-0.44
2022-12-03T14:37:18.045Z,-0.45
2022-12-03T14:38:18.031Z,-0.44
2022-12-03T14:39:18.036Z,-0.45
2022-12-03T14:40:21.469Z,-0.48
2022-12-03T14:41:18.009Z,-0.45
2022-12-03T14:42:17.980Z,-0.48
2022-12-03T14:43:17.982Z,-0.47
2022-12-03T14:44:17.960Z,-0.47
2022-12-03T14:45:17.974Z,-0.44
2022-12-03T14:46:18.215Z,-0.42
2022-12-03T14:47:17.962Z,-0.36
2022-12-03T14:48:17.930Z,-0.34
2022-12-03T14:49:17.929Z,-0.34
2022-12-03T14:50:17.901Z,-0.34
2022-12-03T14:51:17.915Z,-0.36
2022-12-03T14:52:17.907Z,-0.37
2022-12-03T14:53:20.518Z,-0.36
2022-12-03T14:54:17.859Z,-0.34
2022-12-03T14:55:17.873Z,-0.33
2022-12-03T14:56:17.852Z,-0.30
2022-12-03T14:57:17.847Z,-0.29
2022-12-03T14:58:17.843Z,-0.31
2022-12-03T14:59:20.651Z,-0.39
2022-12-03T15:00:17.802Z,-0.42
2022-12-03T15:01:17.971Z,-0.42
2022-12-03T15:02:17.872Z,-0.44
2022-12-03T15:03:17.807Z,-0.44
2022-12-03T15:04:17.769Z,-0.44
2022-12-03T15:05:18.601Z,-0.45
2022-12-03T15:06:17.750Z,-0.45
2022-12-03T15:07:17.752Z,-0.44
2022-12-03T15:08:17.754Z,-0.42
2022-12-03T15:09:17.734Z,-0.44
2022-12-03T15:10:17.712Z,-0.47
2022-12-03T15:11:17.710Z,-0.48
2022-12-03T15:12:17.693Z,-0.48
2022-12-03T15:13:17.688Z,-0.51
2022-12-03T15:14:17.655Z,-0.52
2022-12-03T15:15:17.665Z,-0.51
2022-12-03T15:16:17.733Z,-0.52
2022-12-03T15:17:23.326Z,-0.50
2022-12-03T15:18:17.629Z,-0.50
2022-12-03T15:19:17.633Z,-0.47
2022-12-03T15:20:17.597Z,-0.47
2022-12-03T15:21:17.614Z,-0.48
2022-12-03T15:22:17.625Z,-0.47
2022-12-03T15:23:17.586Z,-0.42
2022-12-03T15:24:17.573Z,-0.41
2022-12-03T15:25:17.567Z,-0.42
2022-12-03T15:26:17.587Z,-0.44
2022-12-03T15:27:17.560Z,-0.47
2022-12-03T15:28:17.539Z,-0.48
2022-12-03T15:29:17.537Z,-0.47
2022-12-03T15:30:17.493Z,-0.48
2022-12-03T15:31:17.607Z,-0.47
2022-12-03T15:32:17.498Z,-0.45
2022-12-03T15:33:17.475Z,-0.47
2022-12-03T15:34:22.478Z,-0.45
2022-12-03T15:35:17.475Z,-0.47
2022-12-03T15:36:17.463Z,-0.48
2022-12-03T15:37:17.442Z,-0.48
2022-12-03T15:38:17.418Z,-0.48
2022-12-03T15:39:17.428Z,-0.50
2022-12-03T15:40:17.396Z,-0.47
2022-12-03T15:41:17.417Z,-0.47
2022-12-03T15:42:17.378Z,-0.47
2022-12-03T15:43:17.380Z,-0.48
2022-12-03T15:44:17.373Z,-0.47
2022-12-03T15:45:17.412Z,-0.45
2022-12-03T15:46:17.437Z,-0.45
2022-12-03T15:47:17.368Z,-0.44
2022-12-03T15:48:17.353Z,-0.44
2022-12-03T15:49:17.316Z,-0.45
2022-12-03T15:50:17.304Z,-0.50
2022-12-03T15:51:17.361Z,-0.50
2022-12-03T15:52:17.340Z,-0.50
2022-12-03T15:53:17.347Z,-0.51
2022-12-03T15:54:17.321Z,-0.50
2022-12-03T15:55:17.316Z,-0.47
2022-12-03T15:56:17.302Z,-0.48
2022-12-03T15:57:17.316Z,-0.50
2022-12-03T15:58:18.072Z,-0.52
2022-12-03T15:59:17.318Z,-0.52
2022-12-03T16:00:17.315Z,-0.54
2022-12-03T16:01:17.277Z,-0.57
2022-12-03T16:02:17.368Z,-0.59
2022-12-03T16:03:17.299Z,-0.57
2022-12-03T16:04:17.215Z,-0.55
2022-12-03T16:05:17.252Z,-0.55
2022-12-03T16:06:17.185Z,-0.55